createdAt,value
2016-12-28T00:00:43.524Z,1030.81
2016-12-28T00:01:43.603Z,1030.77
2016-12-28T00:02:43.798Z,1030.78
2016-12-28T00:03:43.519Z,1030.84
2016-12-28T00:04:43.604Z,1030.86
2016-12-28T00:05:43.806Z,1030.85
2016-12-28T00:06:43.828Z,1030.82
2016-12-28T00:07:43.802Z,1030.85
2016-12-28T00:08:43.699Z,1030.89
2016-12-28T00:09:43.812Z,1030.92
2016-12-28T00:10:44.052Z,1030.92
2016-12-28T00:11:43.882Z,1030.96
2016-12-28T00:12:44.311Z,1030.94
2016-12-28T00:13:43.851Z,1030.96
2016-12-28T00:14:43.940Z,1030.99
2016-12-28T00:15:43.965Z,1030.94
2016-12-28T00:16:43.939Z,1030.97
2016-12-28T00:17:43.962Z,1030.96
2016-12-28T00:18:44.184Z,1030.9
2016-12-28T00:19:43.979Z,1030.93
2016-12-28T00:20:44.063Z,1030.92
2016-12-28T00:21:43.992Z,1030.89
2016-12-28T00:22:44.024Z,1030.88
2016-12-28T00:23:44.000Z,1030.84
2016-12-28T00:24:44.016Z,1030.87
2016-12-28T00:25:44.006Z,1030.79
2016-12-28T00:26:43.890Z,1030.86
2016-12-28T00:27:43.933Z,1030.84
2016-12-28T00:28:44.130Z,1030.84
2016-12-28T00:29:43.963Z,1030.83
2016-12-28T00:30:43.997Z,1030.82
2016-12-28T00:31:44.377Z,1030.81
2016-12-28T00:32:43.932Z,1030.8
2016-12-28T00:33:43.947Z,1030.81
2016-12-28T00:34:43.957Z,1030.84
2016-12-28T00:35:44.056Z,1030.82
2016-12-28T00:36:44.089Z,1030.86
2016-12-28T00:37:44.031Z,1030.84
2016-12-28T00:38:44.414Z,1030.91
2016-12-28T00:39:44.180Z,1030.91
2016-12-28T00:40:44.079Z,1031
2016-12-28T00:41:44.265Z,1030.97
2016-12-28T00:42:44.334Z,1031
2016-12-28T00:43:44.237Z,1031.09
2016-12-28T00:44:44.204Z,1031.1
2016-12-28T00:45:44.319Z,1031.11
2016-12-28T00:46:44.357Z,1031.06
2016-12-28T00:47:44.328Z,1031.16
2016-12-28T00:48:44.314Z,1030.99
2016-12-28T00:49:44.345Z,1031.04
2016-12-28T00:50:44.402Z,1031.04
2016-12-28T00:51:44.642Z,1031.1
2016-12-28T00:52:44.481Z,1031.11
2016-12-28T00:53:44.251Z,1031.14
2016-12-28T00:54:44.422Z,1031.12
2016-12-28T00:55:44.560Z,1031.09
2016-12-28T00:56:44.399Z,1031.11
2016-12-28T00:57:44.803Z,1031.07
2016-12-28T00:58:44.687Z,1031.07
2016-12-28T00:59:44.694Z,1031.04
2016-12-28T01:00:44.565Z,1031.07
2016-12-28T01:01:44.563Z,1031.12
2016-12-28T01:02:44.656Z,1031.07
2016-12-28T01:03:44.584Z,1031.07
2016-12-28T01:04:44.575Z,1031.14
2016-12-28T01:05:44.528Z,1031.18
2016-12-28T01:06:44.474Z,1031.16
2016-12-28T01:07:44.792Z,1031.2
2016-12-28T01:08:44.588Z,1031.16
2016-12-28T01:09:44.534Z,1031.11
2016-12-28T01:10:44.618Z,1031.1
2016-12-28T01:11:44.692Z,1031.04
2016-12-28T01:12:44.971Z,1031
2016-12-28T01:13:44.808Z,1030.95
2016-12-28T01:14:44.785Z,1030.97
2016-12-28T01:15:44.594Z,1030.95
2016-12-28T01:16:44.682Z,1030.93
2016-12-28T01:17:44.696Z,1030.98
2016-12-28T01:18:44.856Z,1030.95
2016-12-28T01:19:44.666Z,1030.96
2016-12-28T01:20:44.830Z,1030.93
2016-12-28T01:21:44.732Z,1030.96
2016-12-28T01:22:44.933Z,1030.96
2016-12-28T01:23:45.154Z,1030.92
2016-12-28T01:24:44.969Z,1030.89
2016-12-28T01:25:44.690Z,1030.86
2016-12-28T01:26:44.938Z,1030.84
2016-12-28T01:27:44.756Z,1030.82
2016-12-28T01:28:44.973Z,1030.78
2016-12-28T01:29:44.935Z,1030.75
2016-12-28T01:30:45.129Z,1030.82
2016-12-28T01:31:45.012Z,1030.73
2016-12-28T01:32:45.059Z,1030.78
2016-12-28T01:33:45.080Z,1030.76
2016-12-28T01:34:45.261Z,1030.75
2016-12-28T01:35:44.982Z,1030.76
2016-12-28T01:36:45.172Z,1030.85
2016-12-28T01:37:45.200Z,1030.84
2016-12-28T01:38:45.437Z,1030.85
2016-12-28T01:39:45.232Z,1030.85
2016-12-28T01:40:45.118Z,1030.85
2016-12-28T01:41:45.035Z,1030.83
2016-12-28T01:42:45.144Z,1030.82
2016-12-28T01:43:45.415Z,1030.79
2016-12-28T01:44:45.118Z,1030.85
2016-12-28T01:45:45.117Z,1030.8
2016-12-28T01:46:45.094Z,1030.77
2016-12-28T01:47:45.153Z,1030.77
2016-12-28T01:48:45.115Z,1030.77
2016-12-28T01:49:45.094Z,1030.79
2016-12-28T01:50:45.317Z,1030.75
2016-12-28T01:51:45.461Z,1030.75
2016-12-28T01:52:45.451Z,1030.7
2016-12-28T01:53:45.239Z,1030.71
2016-12-28T01:54:45.266Z,1030.7
2016-12-28T01:55:45.435Z,1030.79
2016-12-28T01:56:45.409Z,1030.79
2016-12-28T01:57:45.475Z,1030.78
2016-12-28T01:58:45.391Z,1030.75
2016-12-28T01:59:45.412Z,1030.79
2016-12-28T02:00:45.315Z,1030.76
2016-12-28T02:01:45.278Z,1030.74
2016-12-28T02:02:45.375Z,1030.8
2016-12-28T02:03:45.353Z,1030.73
2016-12-28T02:04:45.535Z,1030.78
2016-12-28T02:05:45.464Z,1030.74
2016-12-28T02:06:46.178Z,1030.82
2016-12-28T02:07:46.014Z,1030.81
2016-12-28T02:08:46.290Z,1030.76
2016-12-28T02:09:46.219Z,1030.76
2016-12-28T02:10:46.175Z,1030.73
2016-12-28T02:11:45.679Z,1030.72
2016-12-28T02:12:45.628Z,1030.74
2016-12-28T02:13:45.457Z,1030.74
2016-12-28T02:14:45.842Z,1030.69
2016-12-28T02:15:45.824Z,1030.74
2016-12-28T02:16:45.665Z,1030.74
2016-12-28T02:17:45.603Z,1030.71
2016-12-28T02:18:45.571Z,1030.73
2016-12-28T02:19:45.588Z,1030.75
2016-12-28T02:20:45.624Z,1030.76
2016-12-28T02:21:45.573Z,1030.75
2016-12-28T02:22:46.129Z,1030.71
2016-12-28T02:23:45.649Z,1030.73
2016-12-28T02:24:45.774Z,1030.72
2016-12-28T02:25:46.128Z,1030.74
2016-12-28T02:26:45.702Z,1030.72
2016-12-28T02:27:45.859Z,1030.68
2016-12-28T02:28:45.716Z,1030.69
2016-12-28T02:29:46.272Z,1030.73
2016-12-28T02:30:45.865Z,1030.76
2016-12-28T02:31:46.301Z,1030.8
2016-12-28T02:32:45.766Z,1030.78
2016-12-28T02:33:45.856Z,1030.8
2016-12-28T02:34:46.180Z,1030.82
2016-12-28T02:35:45.785Z,1030.76
2016-12-28T02:36:46.038Z,1030.83
2016-12-28T02:37:46.333Z,1030.76
2016-12-28T02:38:46.237Z,1030.74
2016-12-28T02:39:46.340Z,1030.74
2016-12-28T02:40:46.202Z,1030.69
2016-12-28T02:41:46.167Z,1030.71
2016-12-28T02:42:45.991Z,1030.67
2016-12-28T02:43:46.124Z,1030.7
2016-12-28T02:44:46.032Z,1030.71
2016-12-28T02:45:46.574Z,1030.65
2016-12-28T02:46:46.294Z,1030.63
2016-12-28T02:47:46.396Z,1030.6
2016-12-28T02:48:46.291Z,1030.73
2016-12-28T02:49:46.420Z,1030.73
2016-12-28T02:50:46.214Z,1030.65
2016-12-28T02:51:46.241Z,1030.7
2016-12-28T02:52:46.283Z,1030.67
2016-12-28T02:53:46.147Z,1030.68
2016-12-28T02:54:46.957Z,1030.68
2016-12-28T02:55:46.389Z,1030.65
2016-12-28T02:56:46.226Z,1030.68
2016-12-28T02:57:46.437Z,1030.77
2016-12-28T02:58:46.334Z,1030.71
2016-12-28T02:59:46.514Z,1030.67
2016-12-28T03:00:46.530Z,1030.76
2016-12-28T03:01:46.378Z,1030.74
2016-12-28T03:02:46.308Z,1030.74
2016-12-28T03:03:46.552Z,1030.71
2016-12-28T03:04:46.492Z,1030.72
2016-12-28T03:05:46.563Z,1030.68
2016-12-28T03:06:46.436Z,1030.7
2016-12-28T03:07:46.273Z,1030.7
2016-12-28T03:08:46.264Z,1030.6
2016-12-28T03:09:46.652Z,1030.65
2016-12-28T03:10:46.624Z,1030.64
2016-12-28T03:11:46.414Z,1030.65
2016-12-28T03:12:46.559Z,1030.64
2016-12-28T03:13:46.724Z,1030.64
2016-12-28T03:14:46.601Z,1030.69
2016-12-28T03:15:46.392Z,1030.73
2016-12-28T03:16:46.549Z,1030.65
2016-12-28T03:17:46.574Z,1030.69
2016-12-28T03:18:46.803Z,1030.68
2016-12-28T03:19:46.417Z,1030.66
2016-12-28T03:20:46.542Z,1030.65
2016-12-28T03:21:46.492Z,1030.63
2016-12-28T03:22:46.543Z,1030.68
2016-12-28T03:23:46.545Z,1030.69
2016-12-28T03:24:46.718Z,1030.66
2016-12-28T03:25:46.644Z,1030.64
2016-12-28T03:26:46.808Z,1030.6
2016-12-28T03:27:46.700Z,1030.62
2016-12-28T03:28:46.623Z,1030.62
2016-12-28T03:29:46.983Z,1030.58
2016-12-28T03:30:46.708Z,1030.56
2016-12-28T03:31:46.754Z,1030.58
2016-12-28T03:32:46.742Z,1030.56
2016-12-28T03:33:46.960Z,1030.57
2016-12-28T03:34:46.914Z,1030.6
2016-12-28T03:35:46.800Z,1030.64
2016-12-28T03:36:47.004Z,1030.61
2016-12-28T03:37:46.969Z,1030.61
2016-12-28T03:38:46.660Z,1030.57
2016-12-28T03:39:46.887Z,1030.6
2016-12-28T03:40:47.099Z,1030.55
2016-12-28T03:41:46.888Z,1030.55
2016-12-28T03:42:46.840Z,1030.6
2016-12-28T03:43:46.861Z,1030.58
2016-12-28T03:44:46.907Z,1030.61
2016-12-28T03:45:47.000Z,1030.62
2016-12-28T03:46:46.798Z,1030.62
2016-12-28T03:47:46.856Z,1030.61
2016-12-28T03:48:47.087Z,1030.59
2016-12-28T03:49:47.011Z,1030.58
2016-12-28T03:50:46.924Z,1030.56
2016-12-28T03:51:46.846Z,1030.59
2016-12-28T03:52:47.203Z,1030.58
2016-12-28T03:53:46.952Z,1030.64
2016-12-28T03:54:47.083Z,1030.61
2016-12-28T03:55:46.978Z,1030.64
2016-12-28T03:56:47.191Z,1030.59
2016-12-28T03:57:46.907Z,1030.67
2016-12-28T03:58:47.057Z,1030.64
2016-12-28T03:59:47.464Z,1030.63
2016-12-28T04:00:47.097Z,1030.69
2016-12-28T04:01:47.346Z,1030.65
2016-12-28T04:02:47.317Z,1030.63
2016-12-28T04:03:47.062Z,1030.66
2016-12-28T04:04:47.347Z,1030.65
2016-12-28T04:05:47.078Z,1030.65
2016-12-28T04:06:47.264Z,1030.63
2016-12-28T04:07:47.124Z,1030.64
2016-12-28T04:08:47.204Z,1030.65
2016-12-28T04:09:47.326Z,1030.69
2016-12-28T04:10:47.550Z,1030.69
2016-12-28T04:11:47.326Z,1030.7
2016-12-28T04:12:47.481Z,1030.7
2016-12-28T04:13:47.267Z,1030.75
2016-12-28T04:14:47.727Z,1030.74
2016-12-28T04:15:47.417Z,1030.73
2016-12-28T04:16:47.459Z,1030.69
2016-12-28T04:17:47.673Z,1030.69
2016-12-28T04:18:47.429Z,1030.69
2016-12-28T04:19:47.608Z,1030.69
2016-12-28T04:20:47.426Z,1030.75
2016-12-28T04:21:47.274Z,1030.68
2016-12-28T04:22:47.459Z,1030.73
2016-12-28T04:23:47.471Z,1030.73
2016-12-28T04:24:47.486Z,1030.75
2016-12-28T04:25:47.745Z,1030.73
2016-12-28T04:26:47.685Z,1030.78
2016-12-28T04:27:47.771Z,1030.75
2016-12-28T04:28:47.769Z,1030.72
2016-12-28T04:29:47.666Z,1030.68
2016-12-28T04:30:47.607Z,1030.76
2016-12-28T04:31:47.937Z,1030.77
2016-12-28T04:32:47.499Z,1030.83
2016-12-28T04:33:47.700Z,1030.87
2016-12-28T04:34:47.853Z,1030.87
2016-12-28T04:35:47.890Z,1030.9
2016-12-28T04:36:47.676Z,1030.86
2016-12-28T04:37:47.750Z,1030.94
2016-12-28T04:38:47.701Z,1030.93
2016-12-28T04:39:47.653Z,1030.92
2016-12-28T04:40:47.665Z,1030.96
2016-12-28T04:41:48.219Z,1030.96
2016-12-28T04:42:47.819Z,1030.92
2016-12-28T04:43:47.688Z,1030.92
2016-12-28T04:44:47.733Z,1030.92
2016-12-28T04:45:47.812Z,1030.92
2016-12-28T04:46:47.768Z,1030.88
2016-12-28T04:47:47.782Z,1030.9
2016-12-28T04:48:47.686Z,1030.88
2016-12-28T04:49:47.825Z,1030.82
2016-12-28T04:50:47.870Z,1030.83
2016-12-28T04:51:47.805Z,1030.86
2016-12-28T04:52:47.984Z,1030.87
2016-12-28T04:53:48.267Z,1030.85
2016-12-28T04:54:47.961Z,1030.89
2016-12-28T04:55:48.119Z,1030.94
2016-12-28T04:56:47.880Z,1031.02
2016-12-28T04:57:48.132Z,1031.02
2016-12-28T04:58:47.857Z,1031
2016-12-28T04:59:48.032Z,1031.01
2016-12-28T05:00:48.031Z,1031.01
2016-12-28T05:01:47.990Z,1031.02
2016-12-28T05:02:48.450Z,1030.97
2016-12-28T05:03:48.156Z,1030.95
2016-12-28T05:04:48.109Z,1030.96
2016-12-28T05:05:48.007Z,1031
2016-12-28T05:06:47.984Z,1030.98
2016-12-28T05:07:48.251Z,1030.97
2016-12-28T05:08:47.945Z,1030.86
2016-12-28T05:09:48.083Z,1030.84
2016-12-28T05:10:48.476Z,1030.86
2016-12-28T05:11:48.070Z,1030.8
2016-12-28T05:12:48.094Z,1030.78
2016-12-28T05:13:48.109Z,1030.83
2016-12-28T05:14:48.162Z,1030.83
2016-12-28T05:15:48.255Z,1030.84
2016-12-28T05:16:48.252Z,1030.91
2016-12-28T05:17:48.878Z,1030.92
2016-12-28T05:18:48.450Z,1030.94
2016-12-28T05:19:48.588Z,1030.9
2016-12-28T05:20:48.547Z,1030.82
2016-12-28T05:21:48.679Z,1030.86
2016-12-28T05:22:49.040Z,1030.88
2016-12-28T05:23:48.500Z,1030.89
2016-12-28T05:24:48.618Z,1030.89
2016-12-28T05:25:48.345Z,1030.9
2016-12-28T05:26:48.787Z,1030.87
2016-12-28T05:27:48.316Z,1030.87
2016-12-28T05:28:48.661Z,1030.82
2016-12-28T05:29:48.518Z,1030.81
2016-12-28T05:30:48.687Z,1030.81
2016-12-28T05:31:48.850Z,1030.86
2016-12-28T05:32:49.235Z,1030.84
2016-12-28T05:33:49.681Z,1030.82
2016-12-28T05:34:48.849Z,1030.81
2016-12-28T05:35:48.715Z,1030.85
2016-12-28T05:36:48.392Z,1030.76
2016-12-28T05:37:48.726Z,1030.83
2016-12-28T05:38:48.812Z,1030.78
2016-12-28T05:39:48.932Z,1030.77
2016-12-28T05:40:49.061Z,1030.75
2016-12-28T05:41:49.207Z,1030.81
2016-12-28T05:42:48.778Z,1030.86
2016-12-28T05:43:48.921Z,1030.89
2016-12-28T05:44:49.327Z,1030.88
2016-12-28T05:45:48.634Z,1030.9
2016-12-28T05:46:49.149Z,1030.93
2016-12-28T05:47:48.782Z,1030.89
2016-12-28T05:48:48.934Z,1030.94
2016-12-28T05:49:49.072Z,1030.98
2016-12-28T05:50:48.968Z,1031.02
2016-12-28T05:51:49.656Z,1031.05
2016-12-28T05:52:49.280Z,1031.05
2016-12-28T05:53:49.105Z,1031.04
2016-12-28T05:54:50.138Z,1031.04
2016-12-28T05:55:48.935Z,1031.07
2016-12-28T05:56:49.053Z,1031.06
2016-12-28T05:57:49.243Z,1031.06
2016-12-28T05:58:48.855Z,1031.08
2016-12-28T05:59:48.989Z,1031.08
2016-12-28T06:00:49.380Z,1031.07
2016-12-28T06:01:49.015Z,1031.09
2016-12-28T06:02:49.391Z,1031.07
2016-12-28T06:03:49.616Z,1031.09
2016-12-28T06:04:49.300Z,1031.11
2016-12-28T06:05:49.626Z,1031.06
2016-12-28T06:06:49.568Z,1031.05
2016-12-28T06:07:49.314Z,1031.04
2016-12-28T06:08:49.162Z,1031.06
2016-12-28T06:09:49.591Z,1031.08
2016-12-28T06:10:49.232Z,1031.08
2016-12-28T06:11:49.309Z,1031.03
2016-12-28T06:12:49.906Z,1031.05
2016-12-28T06:13:49.203Z,1031
2016-12-28T06:14:49.707Z,1031.03
2016-12-28T06:15:49.089Z,1031.02
2016-12-28T06:16:49.734Z,1031.02
2016-12-28T06:17:49.192Z,1031.06
2016-12-28T06:18:49.428Z,1031.03
2016-12-28T06:19:49.807Z,1031.03
2016-12-28T06:24:49.201Z,1031.11
2016-12-28T06:26:49.719Z,1031.12
2016-12-28T06:27:49.621Z,1031.13
2016-12-28T06:28:49.625Z,1031.18
2016-12-28T06:29:49.385Z,1031.23
2016-12-28T06:30:49.792Z,1031.28
2016-12-28T06:31:49.355Z,1031.26
2016-12-28T06:32:49.274Z,1031.25
2016-12-28T06:33:51.323Z,1031.24
2016-12-28T06:34:49.831Z,1031.26
2016-12-28T06:35:49.251Z,1031.24
2016-12-28T06:36:49.774Z,1031.27
2016-12-28T06:37:49.757Z,1031.24
2016-12-28T06:38:49.460Z,1031.25
2016-12-28T06:39:50.072Z,1031.25
2016-12-28T06:40:49.846Z,1031.27
2016-12-28T06:41:49.412Z,1031.29
2016-12-28T06:42:49.586Z,1031.32
2016-12-28T06:43:49.386Z,1031.34
2016-12-28T06:44:49.975Z,1031.33
2016-12-28T06:45:49.745Z,1031.4
2016-12-28T06:46:49.716Z,1031.38
2016-12-28T06:47:50.192Z,1031.44
2016-12-28T06:48:50.116Z,1031.47
2016-12-28T06:49:49.750Z,1031.47
2016-12-28T06:50:49.911Z,1031.51
2016-12-28T06:51:49.668Z,1031.55
2016-12-28T06:52:49.917Z,1031.54
2016-12-28T06:53:49.729Z,1031.54
2016-12-28T06:54:50.175Z,1031.53
2016-12-28T06:55:49.902Z,1031.53
2016-12-28T06:56:49.645Z,1031.52
2016-12-28T06:57:49.665Z,1031.54
2016-12-28T06:58:50.050Z,1031.51
2016-12-28T06:59:49.845Z,1031.5
2016-12-28T07:00:50.030Z,1031.53
2016-12-28T07:01:49.858Z,1031.54
2016-12-28T07:02:49.922Z,1031.56
2016-12-28T07:03:49.918Z,1031.58
2016-12-28T07:04:49.884Z,1031.61
2016-12-28T07:05:49.907Z,1031.64
2016-12-28T07:06:49.931Z,1031.63
2016-12-28T07:07:49.907Z,1031.59
2016-12-28T07:08:49.857Z,1031.62
2016-12-28T07:09:50.926Z,1031.67
2016-12-28T07:10:50.041Z,1031.71
2016-12-28T07:11:50.023Z,1031.73
2016-12-28T07:12:50.473Z,1031.79
2016-12-28T07:13:50.644Z,1031.79
2016-12-28T07:14:49.989Z,1031.81
2016-12-28T07:15:50.009Z,1031.77
2016-12-28T07:16:49.955Z,1031.75
2016-12-28T07:17:50.047Z,1031.72
2016-12-28T07:18:50.156Z,1031.72
2016-12-28T07:19:50.164Z,1031.73
2016-12-28T07:20:50.249Z,1031.71
2016-12-28T07:21:50.187Z,1031.69
2016-12-28T07:22:50.318Z,1031.69
2016-12-28T07:23:50.161Z,1031.72
2016-12-28T07:24:50.132Z,1031.71
2016-12-28T07:25:50.178Z,1031.75
2016-12-28T07:26:50.675Z,1031.77
2016-12-28T07:27:50.338Z,1031.8
2016-12-28T07:28:50.231Z,1031.87
2016-12-28T07:29:50.224Z,1031.9
2016-12-28T07:30:50.376Z,1031.96
2016-12-28T07:31:50.297Z,1031.95
2016-12-28T07:32:50.404Z,1031.97
2016-12-28T07:33:50.412Z,1032
2016-12-28T07:34:50.822Z,1032.06
2016-12-28T07:35:50.768Z,1032.06
2016-12-28T07:36:50.257Z,1032.11
2016-12-28T07:37:50.464Z,1032.11
2016-12-28T07:38:50.307Z,1032.09
2016-12-28T07:39:50.244Z,1032.13
2016-12-28T07:40:50.648Z,1032.15
2016-12-28T07:41:50.346Z,1032.09
2016-12-28T07:42:50.644Z,1032.11
2016-12-28T07:43:50.475Z,1032.06
2016-12-28T07:44:50.603Z,1032.04
2016-12-28T07:45:50.530Z,1032.01
2016-12-28T07:46:50.438Z,1032
2016-12-28T07:47:50.447Z,1031.96
2016-12-28T07:48:50.499Z,1032.01
2016-12-28T07:49:51.893Z,1032.06
2016-12-28T07:50:50.706Z,1032.07
2016-12-28T07:51:50.608Z,1032.11
2016-12-28T07:52:51.076Z,1032.11
2016-12-28T07:53:50.836Z,1032.13
2016-12-28T07:54:50.852Z,1032.1
2016-12-28T07:55:50.478Z,1032.12
2016-12-28T07:57:50.570Z,1032.13
2016-12-28T07:58:50.513Z,1032.11
2016-12-28T07:59:50.487Z,1032.15
2016-12-28T08:00:50.535Z,1032.18
2016-12-28T08:01:50.575Z,1032.19
2016-12-28T08:02:50.732Z,1032.18
2016-12-28T08:03:50.677Z,1032.16
2016-12-28T08:04:50.674Z,1032.17
2016-12-28T08:05:50.744Z,1032.16
2016-12-28T08:06:51.188Z,1032.15
2016-12-28T08:07:50.856Z,1032.18
2016-12-28T08:08:50.736Z,1032.18
2016-12-28T08:09:50.755Z,1032.15
2016-12-28T08:10:50.853Z,1032.13
2016-12-28T08:11:50.945Z,1032.1
2016-12-28T08:12:50.743Z,1032.1
2016-12-28T08:13:51.197Z,1032.1
2016-12-28T08:14:50.780Z,1032.09
2016-12-28T08:15:50.883Z,1032.1
2016-12-28T08:16:50.735Z,1032.15
2016-12-28T08:17:51.129Z,1032.13
2016-12-28T08:18:51.058Z,1032.09
2016-12-28T08:19:50.834Z,1032.05
2016-12-28T08:20:50.940Z,1032.06
2016-12-28T08:21:51.098Z,1032.1
2016-12-28T08:22:50.885Z,1032.09
2016-12-28T08:23:51.570Z,1032.07
2016-12-28T08:24:51.125Z,1032.11
2016-12-28T08:25:51.175Z,1032.06
2016-12-28T08:26:51.255Z,1032.09
2016-12-28T08:27:51.074Z,1032.08
2016-12-28T08:28:50.980Z,1032.13
2016-12-28T08:29:51.024Z,1032.11
2016-12-28T08:30:53.189Z,1032.19
2016-12-28T08:31:51.029Z,1032.16
2016-12-28T08:32:50.955Z,1032.15
2016-12-28T08:33:51.104Z,1032.14
2016-12-28T08:34:51.168Z,1032.14
2016-12-28T08:35:51.102Z,1032.18
2016-12-28T08:36:51.112Z,1032.2
2016-12-28T08:37:51.033Z,1032.2
2016-12-28T08:38:51.150Z,1032.21
2016-12-28T08:39:51.307Z,1032.26
2016-12-28T08:40:51.172Z,1032.24
2016-12-28T08:41:51.123Z,1032.24
2016-12-28T08:42:51.196Z,1032.21
2016-12-28T08:43:51.382Z,1032.2
2016-12-28T08:44:51.302Z,1032.18
2016-12-28T08:45:51.103Z,1032.2
2016-12-28T08:46:51.232Z,1032.18
2016-12-28T08:47:51.279Z,1032.15
2016-12-28T08:48:51.259Z,1032.19
2016-12-28T08:49:51.358Z,1032.21
2016-12-28T08:50:52.162Z,1032.19
2016-12-28T08:51:51.339Z,1032.16
2016-12-28T08:52:51.395Z,1032.15
2016-12-28T08:53:51.512Z,1032.13
2016-12-28T08:54:51.568Z,1032.18
2016-12-28T08:55:51.400Z,1032.23
2016-12-28T08:56:51.327Z,1032.14
2016-12-28T08:57:51.399Z,1032.26
2016-12-28T08:58:51.527Z,1032.25
2016-12-28T08:59:51.391Z,1032.22
2016-12-28T09:00:51.415Z,1032.25
2016-12-28T09:01:51.326Z,1032.28
2016-12-28T09:02:51.493Z,1032.24
2016-12-28T09:03:51.389Z,1032.17
2016-12-28T09:04:51.563Z,1032.21
2016-12-28T09:05:51.469Z,1032.22
2016-12-28T09:06:51.634Z,1032.25
2016-12-28T09:07:51.582Z,1032.27
2016-12-28T09:08:52.052Z,1032.25
2016-12-28T09:09:51.517Z,1032.25
2016-12-28T09:10:51.624Z,1032.2
2016-12-28T09:11:51.699Z,1032.23
2016-12-28T09:12:51.794Z,1032.23
2016-12-28T09:13:52.405Z,1032.25
2016-12-28T09:14:51.735Z,1032.23
2016-12-28T09:15:51.789Z,1032.21
2016-12-28T09:16:51.891Z,1032.19
2016-12-28T09:17:52.334Z,1032.24
2016-12-28T09:18:51.625Z,1032.25
2016-12-28T09:19:51.789Z,1032.22
2016-12-28T09:20:51.830Z,1032.21
2016-12-28T09:21:51.721Z,1032.19
2016-12-28T09:22:51.699Z,1032.23
2016-12-28T09:23:51.804Z,1032.26
2016-12-28T09:24:51.823Z,1032.28
2016-12-28T09:25:52.175Z,1032.24
2016-12-28T09:26:51.869Z,1032.24
2016-12-28T09:27:51.941Z,1032.28
2016-12-28T09:28:51.860Z,1032.25
2016-12-28T09:29:51.851Z,1032.33
2016-12-28T09:30:52.088Z,1032.32
2016-12-28T09:31:52.017Z,1032.35
2016-12-28T09:32:51.976Z,1032.33
2016-12-28T09:33:52.047Z,1032.35
2016-12-28T09:34:52.072Z,1032.38
2016-12-28T09:35:52.009Z,1032.36
2016-12-28T09:36:51.930Z,1032.37
2016-12-28T09:37:52.067Z,1032.3
2016-12-28T09:38:52.105Z,1032.31
2016-12-28T09:39:51.985Z,1032.33
2016-12-28T09:40:52.350Z,1032.31
2016-12-28T09:41:51.974Z,1032.33
2016-12-28T09:42:52.016Z,1032.35
2016-12-28T09:43:52.392Z,1032.32
2016-12-28T09:44:52.217Z,1032.32
2016-12-28T09:45:52.022Z,1032.34
2016-12-28T09:46:52.050Z,1032.34
2016-12-28T09:47:52.148Z,1032.38
2016-12-28T09:48:52.846Z,1032.4
2016-12-28T09:49:52.415Z,1032.37
2016-12-28T09:50:52.412Z,1032.36
2016-12-28T09:51:52.207Z,1032.42
2016-12-28T09:52:52.278Z,1032.35
2016-12-28T09:53:52.374Z,1032.32
2016-12-28T09:54:52.283Z,1032.31
2016-12-28T09:55:52.733Z,1032.34
2016-12-28T09:56:52.503Z,1032.34
2016-12-28T09:57:52.320Z,1032.34
2016-12-28T09:58:52.304Z,1032.3
2016-12-28T09:59:52.232Z,1032.32
2016-12-28T10:00:52.271Z,1032.35
2016-12-28T10:01:52.268Z,1032.35
2016-12-28T10:02:52.352Z,1032.32
2016-12-28T10:03:52.307Z,1032.38
2016-12-28T10:04:52.376Z,1032.38
2016-12-28T10:05:52.395Z,1032.36
2016-12-28T10:06:52.542Z,1032.33
2016-12-28T10:07:52.408Z,1032.3
2016-12-28T10:08:52.417Z,1032.28
2016-12-28T10:09:52.393Z,1032.27
2016-12-28T10:10:52.411Z,1032.24
2016-12-28T10:11:52.511Z,1032.23
2016-12-28T10:12:52.391Z,1032.2
2016-12-28T10:13:52.468Z,1032.19
2016-12-28T10:14:52.857Z,1032.2
2016-12-28T10:15:52.612Z,1032.19
2016-12-28T10:16:52.531Z,1032.2
2016-12-28T10:17:52.673Z,1032.18
2016-12-28T10:18:52.842Z,1032.19
2016-12-28T10:19:52.963Z,1032.13
2016-12-28T10:20:52.620Z,1032.13
2016-12-28T10:21:52.718Z,1032.14
2016-12-28T10:22:52.765Z,1032.12
2016-12-28T10:23:53.019Z,1032.1
2016-12-28T10:24:52.946Z,1032.07
2016-12-28T10:25:52.712Z,1032.07
2016-12-28T10:26:52.675Z,1032.07
2016-12-28T10:27:53.011Z,1032.03
2016-12-28T10:28:52.790Z,1032.04
2016-12-28T10:29:52.963Z,1031.98
2016-12-28T10:30:52.698Z,1032.03
2016-12-28T10:31:52.888Z,1031.98
2016-12-28T10:32:52.879Z,1032.01
2016-12-28T10:33:53.001Z,1032
2016-12-28T10:34:52.883Z,1032.01
2016-12-28T10:35:53.037Z,1032.04
2016-12-28T10:36:52.888Z,1032.04
2016-12-28T10:37:53.352Z,1032.08
2016-12-28T10:38:52.860Z,1032.13
2016-12-28T10:39:53.073Z,1032.2
2016-12-28T10:40:52.891Z,1032.24
2016-12-28T10:41:53.068Z,1032.23
2016-12-28T10:42:52.864Z,1032.21
2016-12-28T10:43:52.908Z,1032.22
2016-12-28T10:44:52.938Z,1032.22
2016-12-28T10:45:53.100Z,1032.19
2016-12-28T10:46:52.998Z,1032.16
2016-12-28T10:47:52.982Z,1032.19
2016-12-28T10:48:53.089Z,1032.21
2016-12-28T10:49:53.170Z,1032.15
2016-12-28T10:50:53.533Z,1032.19
2016-12-28T10:51:53.184Z,1032.16
2016-12-28T10:52:53.143Z,1032.15
2016-12-28T10:53:53.157Z,1032.15
2016-12-28T10:54:53.132Z,1032.13
2016-12-28T10:55:53.855Z,1032.13
2016-12-28T10:56:53.570Z,1032.13
2016-12-28T10:57:53.424Z,1032.12
2016-12-28T10:58:53.386Z,1032.12
2016-12-28T10:59:53.441Z,1032.13
2016-12-28T11:00:53.265Z,1032.13
2016-12-28T11:01:53.416Z,1032.11
2016-12-28T11:02:53.283Z,1032.15
2016-12-28T11:03:53.366Z,1032.12
2016-12-28T11:04:53.361Z,1032.09
2016-12-28T11:05:53.374Z,1032.1
2016-12-28T11:06:53.632Z,1032.09
2016-12-28T11:07:53.328Z,1032.09
2016-12-28T11:08:53.315Z,1032.06
2016-12-28T11:09:53.339Z,1032.07
2016-12-28T11:10:53.361Z,1032.1
2016-12-28T11:11:53.324Z,1032.07
2016-12-28T11:12:53.593Z,1031.99
2016-12-28T11:13:53.449Z,1032.01
2016-12-28T11:14:53.593Z,1032.11
2016-12-28T11:15:53.442Z,1032.04
2016-12-28T11:16:53.587Z,1032.02
2016-12-28T11:17:53.729Z,1032.03
2016-12-28T11:18:53.484Z,1031.97
2016-12-28T11:19:53.440Z,1031.93
2016-12-28T11:20:53.574Z,1031.91
2016-12-28T11:21:53.693Z,1031.89
2016-12-28T11:22:53.743Z,1031.85
2016-12-28T11:23:53.481Z,1031.88
2016-12-28T11:24:53.516Z,1031.85
2016-12-28T11:25:53.675Z,1031.84
2016-12-28T11:26:53.665Z,1031.91
2016-12-28T11:27:53.902Z,1031.92
2016-12-28T11:28:53.641Z,1031.93
2016-12-28T11:29:53.874Z,1031.94
2016-12-28T11:30:53.652Z,1031.92
2016-12-28T11:31:53.921Z,1031.87
2016-12-28T11:32:53.967Z,1031.91
2016-12-28T11:33:53.819Z,1031.89
2016-12-28T11:34:53.916Z,1031.83
2016-12-28T11:35:53.720Z,1031.82
2016-12-28T11:36:53.804Z,1031.82
2016-12-28T11:37:53.878Z,1031.84
2016-12-28T11:38:53.781Z,1031.8
2016-12-28T11:39:54.095Z,1031.77
2016-12-28T11:40:54.022Z,1031.82
2016-12-28T11:41:54.024Z,1031.78
2016-12-28T11:42:53.963Z,1031.76
2016-12-28T11:43:53.913Z,1031.74
2016-12-28T11:44:53.817Z,1031.73
2016-12-28T11:45:53.885Z,1031.73
2016-12-28T11:46:53.947Z,1031.74
2016-12-28T11:47:53.957Z,1031.77
2016-12-28T11:48:54.158Z,1031.74
2016-12-28T11:49:54.165Z,1031.75
2016-12-28T11:50:53.940Z,1031.71
2016-12-28T11:51:54.290Z,1031.72
2016-12-28T11:52:54.100Z,1031.7
2016-12-28T11:53:53.976Z,1031.73
2016-12-28T11:54:53.968Z,1031.73
2016-12-28T11:55:54.075Z,1031.69
2016-12-28T11:56:54.735Z,1031.68
2016-12-28T11:57:54.145Z,1031.7
2016-12-28T11:58:54.209Z,1031.69
2016-12-28T11:59:54.321Z,1031.68
2016-12-28T12:00:54.371Z,1031.7
2016-12-28T12:01:54.209Z,1031.71
2016-12-28T12:02:54.255Z,1031.72
2016-12-28T12:03:54.230Z,1031.76
2016-12-28T12:04:54.152Z,1031.81
2016-12-28T12:05:54.264Z,1031.79
2016-12-28T12:06:54.148Z,1031.76
2016-12-28T12:07:54.265Z,1031.77
2016-12-28T12:08:54.259Z,1031.75
2016-12-28T12:09:54.234Z,1031.69
2016-12-28T12:10:54.204Z,1031.72
2016-12-28T12:11:54.660Z,1031.71
2016-12-28T12:12:54.299Z,1031.76
2016-12-28T12:13:54.624Z,1031.73
2016-12-28T12:14:54.668Z,1031.71